SBKPSBBH

Guest
Details From SBKP - Sao Paulo Viracopos
To SBBH - Pampulha
Flight Number -
Tags generated
Created
Modified
Stats Distance 267 nm / 495 km
Max Altitude 27,500 ft / 8,382 m
Waypoints 4
Social Downloads 0
Likes 0
Share VATSIM

Download

Looking for another format? Having issues loading an existing format? Contact us
Advertisement - Login to hide

Notes

Basic altitude profile: - Ascent Rate: 2500ft/min - Ascent Speed: 250kts - Cruise Altitude: 35000ft - Cruise Speed: 420kts - Descent Rate: 1500ft/min - Descent Speed: 250kts

Route

SBKP PCL UW58 MAVIK SBBH

ID Type Via Altitude Latitude Longitude Leg Dist Tot Dist Heading (true) Name
O SBKP APT - 0 ft / 0 m -23.00738˚ -47.13452˚ - 0 nm - Sao Paulo Viracopos
PCL NDB - 27,500 ft / 8,382 m -21.83583˚ -46.56567˚ 77 nm 77 nm 24° / 24° POCOS NDB
MAVIK FIX UW58 (AWY-HI) 23,500 ft / 7,163 m -20.52833˚ -45.10650˚ 113 nm 190 nm 46° / 46° -
O SBBH APT - 0 ft / 0 m -19.85118˚ -43.95063˚ 76 nm 267 nm 58° / 58° Pampulha

Altitude Profile

Advertisement - Login to hide

Weather


0- 5 10 15 20 25 30 35+ Temperature / ° C

Clouds and Precipitation
Forecast for 2018-05-21 00:00 UTC. Updated 35 minutes ago

Ground ~20,000 ft ~40,000 ft Winds

SBKP

Details ICAO SBKP (VCP)
Name Sao Paulo Viracopos
Region Brazil
Timezone America/Sao_Paulo (UTC-3.0)
Stats Elevation 2,170 ft / 661 m (AMSL)
Location -23.007383° -47.134522°
Runways 1
Magnetic Variation 21.248° W

METAR

SBKP 202300Z 26003KT CAVOK 15/06 Q1017

Decode

TAF

TAF SBKP 201500Z 2018/2118 27015KT 9999 SCT035TN08/2108Z TX20/2117Z BECMG 2020/2022 20005KT CAVOK BECMG 2102/2104 12010KT BECMG 2108/2110 07005KT BECMG 2113/2115 26005KT 9999 FEW040 RMK PGH

Decode

Departure Runways

ID Width Length Bearing (true) Bearing (mag) Surface Threshold Offset Overrun Length
15 148 ft / 45 m 10,639 ft / 3,243 m 127.91° 149.16° Asphalt 0 ft / 0 m 205 ft / 62 m
33 148 ft / 45 m 10,639 ft / 3,243 m 307.90° 329.15° Asphalt 0 ft / 0 m 205 ft / 62 m

SBBH

Details ICAO SBBH (PLU)
Name Pampulha
Region Brazil
Timezone America/Sao_Paulo (UTC-3.0)
Stats Elevation 2,589 ft / 789 m (AMSL)
Location -19.851179° -43.950626°
Runways 1
Magnetic Variation 22.838° W

METAR

SBBH 202300Z 00000KT CAVOK 12/10 Q1017

Decode

TAF

Not found

Destination Runways

ID Width Length Bearing (true) Bearing (mag) Surface Threshold Offset Overrun Length
13 148 ft / 45 m 8,214 ft / 2,504 m 110.63° 133.47° Asphalt 0 ft / 0 m 200 ft / 61 m
31 148 ft / 45 m 8,214 ft / 2,504 m 290.62° 313.46° Asphalt 0 ft / 0 m 200 ft / 61 m

Popular Alternatives